createdAt,value
2023-01-04T00:00:40.955Z,2.36
2023-01-04T00:02:02.747Z,2.36
2023-01-04T00:03:24.690Z,2.36
2023-01-04T00:04:46.484Z,2.34
2023-01-04T00:06:10.631Z,2.35
2023-01-04T00:07:32.348Z,2.35
2023-01-04T00:08:55.195Z,2.34
2023-01-04T00:10:18.800Z,2.33
2023-01-04T00:11:40.845Z,2.32
2023-01-04T00:13:02.752Z,2.32
2023-01-04T00:14:24.619Z,2.30
2023-01-04T00:15:46.730Z,2.31
2023-01-04T00:17:08.549Z,2.27
2023-01-04T00:18:31.531Z,2.26
2023-01-04T00:19:53.981Z,2.28
2023-01-04T00:21:18.356Z,2.27
2023-01-04T00:22:40.213Z,2.24
2023-01-04T00:24:02.707Z,2.27
2023-01-04T00:25:24.813Z,2.28
2023-01-04T00:26:46.829Z,2.28
2023-01-04T00:28:08.749Z,2.27
2023-01-04T00:29:30.856Z,2.18
2023-01-04T00:30:52.485Z,2.20
2023-01-04T00:32:14.411Z,2.17
2023-01-04T00:33:36.744Z,2.14
2023-01-04T00:34:58.437Z,2.16
2023-01-04T00:36:20.189Z,2.14
2023-01-04T00:37:45.680Z,2.14
2023-01-04T00:39:15.397Z,2.13
2023-01-04T00:40:37.166Z,2.13
2023-01-04T00:42:05.301Z,2.13
2023-01-04T00:43:27.796Z,2.12
2023-01-04T00:44:49.454Z,2.12
2023-01-04T00:46:11.723Z,2.10
2023-01-04T00:47:33.436Z,2.09
2023-01-04T00:49:00.157Z,2.10
2023-01-04T00:50:22.263Z,2.11
2023-01-04T00:51:44.114Z,2.10
2023-01-04T00:53:05.990Z,2.10
2023-01-04T00:54:28.485Z,2.11
2023-01-04T00:55:50.496Z,2.11
2023-01-04T00:57:12.279Z,2.11
2023-01-04T00:58:34.045Z,2.10
2023-01-04T00:59:55.893Z,2.10
2023-01-04T01:01:17.872Z,2.10
2023-01-04T01:02:39.986Z,2.08
2023-01-04T01:04:04.475Z,2.08
2023-01-04T01:05:26.764Z,2.07
2023-01-04T01:06:49.246Z,2.08
2023-01-04T01:08:26.999Z,2.06
2023-01-04T01:09:48.601Z,2.06
2023-01-04T01:11:11.161Z,2.05
2023-01-04T01:12:32.750Z,2.04
2023-01-04T01:13:54.896Z,2.01
2023-01-04T01:15:16.859Z,2.01
2023-01-04T01:16:54.503Z,2.01
2023-01-04T01:18:17.895Z,1.99
2023-01-04T01:19:39.869Z,2.00
2023-01-04T01:21:05.903Z,1.98
2023-01-04T01:22:27.837Z,1.98
2023-01-04T01:23:50.765Z,1.99
2023-01-04T01:25:12.767Z,1.98
2023-01-04T01:26:34.862Z,1.96
2023-01-04T01:27:56.741Z,1.95
2023-01-04T01:29:18.724Z,1.95
2023-01-04T01:30:42.683Z,1.94
2023-01-04T01:32:04.603Z,1.94
2023-01-04T01:33:27.589Z,1.91
2023-01-04T01:34:49.392Z,1.86
2023-01-04T01:36:13.241Z,1.86
2023-01-04T01:37:34.838Z,1.88
2023-01-04T01:38:57.092Z,1.88
2023-01-04T01:40:19.176Z,1.90
2023-01-04T01:41:40.806Z,1.89
2023-01-04T01:43:02.654Z,1.90
2023-01-04T01:44:43.137Z,1.89
2023-01-04T01:46:04.967Z,1.89
2023-01-04T01:47:43.406Z,1.89
2023-01-04T01:49:27.379Z,1.90
2023-01-04T01:50:56.345Z,1.89
2023-01-04T01:52:38.969Z,1.89
2023-01-04T01:54:10.754Z,1.89
2023-01-04T01:55:33.774Z,1.90
2023-01-04T01:57:00.157Z,1.89
2023-01-04T01:58:41.492Z,1.89
2023-01-04T02:00:12.560Z,1.89
2023-01-04T02:01:37.029Z,1.88
2023-01-04T02:03:35.283Z,1.80
2023-01-04T02:04:58.931Z,1.80
2023-01-04T02:06:29.682Z,1.72
2023-01-04T02:07:52.020Z,1.69
2023-01-04T02:09:14.548Z,1.71
2023-01-04T02:10:36.362Z,1.73
2023-01-04T02:11:59.296Z,1.61
2023-01-04T02:13:47.894Z,1.61
2023-01-04T02:15:11.046Z,1.63
2023-01-04T02:16:50.687Z,1.63
2023-01-04T02:18:18.135Z,1.65
2023-01-04T02:20:11.247Z,1.67
2023-01-04T02:21:58.868Z,1.67
2023-01-04T02:23:26.317Z,1.64
2023-01-04T02:25:29.452Z,1.65
2023-01-04T02:26:57.338Z,1.67
2023-01-04T02:28:34.386Z,1.67
2023-01-04T02:30:37.905Z,1.67
2023-01-04T02:32:09.028Z,1.68
2023-01-04T02:34:09.624Z,1.68
2023-01-04T02:35:31.316Z,1.67
2023-01-04T02:37:01.200Z,1.68
2023-01-04T02:38:52.658Z,1.67
2023-01-04T02:40:37.255Z,1.68
2023-01-04T02:42:21.072Z,1.67
2023-01-04T02:44:16.121Z,1.66
2023-01-04T02:45:47.402Z,1.67
2023-01-04T02:47:44.217Z,1.66
2023-01-04T02:49:24.475Z,1.65
2023-01-04T02:50:57.183Z,1.62
2023-01-04T02:52:20.373Z,1.53
2023-01-04T02:53:42.543Z,1.55
2023-01-04T02:55:07.182Z,1.56
2023-01-04T02:57:02.666Z,1.57
2023-01-04T02:58:32.821Z,1.56
2023-01-04T03:00:29.132Z,1.57
2023-01-04T03:02:18.453Z,1.57
2023-01-04T03:04:40.743Z,1.56
2023-01-04T03:06:26.258Z,1.55
2023-01-04T03:08:01.836Z,1.53
2023-01-04T03:09:29.374Z,1.53
2023-01-04T03:10:59.434Z,1.52
2023-01-04T03:12:32.843Z,1.49
2023-01-04T03:14:02.440Z,1.48
2023-01-04T03:15:48.715Z,1.45
2023-01-04T03:17:14.774Z,1.45
2023-01-04T03:18:44.558Z,1.46
2023-01-04T03:20:10.122Z,1.45
2023-01-04T03:21:33.700Z,1.44
2023-01-04T03:23:27.034Z,1.44
2023-01-04T03:25:07.184Z,1.41
2023-01-04T03:26:55.826Z,1.41
2023-01-04T03:28:38.757Z,1.38
2023-01-04T03:30:28.507Z,1.39
2023-01-04T03:32:13.897Z,1.40
2023-01-04T03:33:54.607Z,1.36
2023-01-04T03:35:28.129Z,1.38
2023-01-04T03:37:11.680Z,1.36
2023-01-04T03:39:12.659Z,1.36
2023-01-04T03:40:54.715Z,1.36
2023-01-04T03:42:49.798Z,1.38
2023-01-04T03:44:53.823Z,1.36
2023-01-04T03:46:33.940Z,1.35
2023-01-04T03:48:18.979Z,1.34
2023-01-04T03:49:57.466Z,1.34
2023-01-04T03:51:25.764Z,1.33
2023-01-04T03:52:50.401Z,1.33
2023-01-04T03:54:27.213Z,1.33
2023-01-04T03:55:51.098Z,1.31
2023-01-04T03:57:14.811Z,1.32
2023-01-04T03:58:37.614Z,1.29
2023-01-04T04:00:13.425Z,1.29
2023-01-04T04:01:37.042Z,1.28
2023-01-04T04:03:07.450Z,1.28
2023-01-04T04:04:47.981Z,1.28
2023-01-04T04:06:28.672Z,1.29
2023-01-04T04:08:08.805Z,1.28
2023-01-04T04:09:30.399Z,1.27
2023-01-04T04:10:52.850Z,1.28
2023-01-04T04:12:14.708Z,1.29
2023-01-04T04:13:36.826Z,1.28
2023-01-04T04:14:58.699Z,1.25
2023-01-04T04:16:20.829Z,1.26
2023-01-04T04:17:42.452Z,1.28
2023-01-04T04:19:08.634Z,1.26
2023-01-04T04:20:30.996Z,1.27
2023-01-04T04:21:52.822Z,1.25
2023-01-04T04:23:14.441Z,1.27
2023-01-04T04:24:36.978Z,1.27
2023-01-04T04:25:58.811Z,1.27
2023-01-04T04:27:20.801Z,1.27
2023-01-04T04:28:43.250Z,1.25
2023-01-04T04:30:05.578Z,1.26
2023-01-04T04:31:27.439Z,1.26
2023-01-04T04:32:49.149Z,1.27
2023-01-04T04:34:11.666Z,1.26
2023-01-04T04:35:33.613Z,1.26
2023-01-04T04:36:55.620Z,1.27
2023-01-04T04:38:17.585Z,1.26
2023-01-04T04:39:39.450Z,1.27
2023-01-04T04:41:24.899Z,1.26
2023-01-04T04:42:47.046Z,1.26
2023-01-04T04:44:17.884Z,1.27
2023-01-04T04:45:39.927Z,1.27
2023-01-04T04:47:02.303Z,1.27
2023-01-04T04:48:24.214Z,1.26
2023-01-04T04:49:46.330Z,1.27
2023-01-04T04:51:08.316Z,1.26
2023-01-04T04:52:30.349Z,1.27
2023-01-04T04:53:52.172Z,1.27
2023-01-04T04:55:14.086Z,1.27
2023-01-04T04:56:39.294Z,1.26
2023-01-04T04:58:01.082Z,1.27
2023-01-04T04:59:23.007Z,1.25
2023-01-04T05:00:44.741Z,1.24
2023-01-04T05:02:06.829Z,1.24
2023-01-04T05:03:29.367Z,1.25
2023-01-04T05:04:51.096Z,1.25
2023-01-04T05:06:13.769Z,1.25
2023-01-04T05:07:35.711Z,1.25
2023-01-04T05:08:57.559Z,1.23
2023-01-04T05:10:19.319Z,1.23
2023-01-04T05:12:00.340Z,1.22
2023-01-04T05:13:22.534Z,1.23
2023-01-04T05:14:44.052Z,1.21
2023-01-04T05:16:07.701Z,1.20
2023-01-04T05:17:29.720Z,1.22
2023-01-04T05:18:51.557Z,1.22
2023-01-04T05:20:13.432Z,1.21
2023-01-04T05:21:35.203Z,1.19
2023-01-04T05:22:57.023Z,1.19
2023-01-04T05:24:18.904Z,1.18
2023-01-04T05:25:41.054Z,1.17
2023-01-04T05:27:02.952Z,1.16
2023-01-04T05:28:25.230Z,1.15
2023-01-04T05:30:05.606Z,1.14
2023-01-04T05:31:27.393Z,1.14
2023-01-04T05:32:49.678Z,1.14
2023-01-04T05:34:11.228Z,1.11
2023-01-04T05:35:33.179Z,1.11
2023-01-04T05:36:55.055Z,1.10
2023-01-04T05:38:17.320Z,1.09
2023-01-04T05:39:39.301Z,1.11
2023-01-04T05:41:01.084Z,1.11
2023-01-04T05:42:25.735Z,1.06
2023-01-04T05:43:47.353Z,1.06
2023-01-04T05:45:09.992Z,1.07
2023-01-04T05:46:31.877Z,1.06
2023-01-04T05:47:54.683Z,1.07
2023-01-04T05:49:16.396Z,1.06
2023-01-04T05:50:38.019Z,1.06
2023-01-04T05:51:59.839Z,1.07
2023-01-04T05:53:21.846Z,1.08
2023-01-04T05:54:43.904Z,1.08
2023-01-04T05:56:06.176Z,1.08
2023-01-04T05:57:28.038Z,1.08
2023-01-04T05:58:50.026Z,1.06
2023-01-04T06:00:13.457Z,1.07
2023-01-04T06:01:35.058Z,1.07
2023-01-04T06:02:57.321Z,1.07
2023-01-04T06:04:20.273Z,1.05
2023-01-04T06:05:42.120Z,1.07
2023-01-04T06:07:03.732Z,1.06
2023-01-04T06:08:25.625Z,1.06
2023-01-04T06:09:47.696Z,1.06
2023-01-04T06:11:09.564Z,1.07
2023-01-04T06:12:31.453Z,1.07
2023-01-04T06:13:53.241Z,1.07
2023-01-04T06:15:15.603Z,1.07
2023-01-04T06:16:37.677Z,1.08
2023-01-04T06:17:59.521Z,1.07
2023-01-04T06:19:21.169Z,1.08
2023-01-04T06:20:43.881Z,1.10
2023-01-04T06:22:06.832Z,1.10
2023-01-04T06:23:29.263Z,1.11
2023-01-04T06:24:51.114Z,1.11
2023-01-04T06:26:13.301Z,1.12
2023-01-04T06:27:34.982Z,1.14
2023-01-04T06:28:56.960Z,1.16
2023-01-04T06:30:18.965Z,1.16
2023-01-04T06:31:41.079Z,1.18
2023-01-04T06:33:02.714Z,1.17
2023-01-04T06:34:30.574Z,1.16
2023-01-04T06:35:57.160Z,1.03
2023-01-04T06:37:19.170Z,1.01
2023-01-04T06:38:40.905Z,1.06
2023-01-04T06:40:03.477Z,1.11
2023-01-04T06:41:25.572Z,1.10
2023-01-04T06:42:47.653Z,1.15
2023-01-04T06:44:09.511Z,1.17
2023-01-04T06:45:32.350Z,1.22
2023-01-04T06:46:54.272Z,1.21
2023-01-04T06:48:18.300Z,1.27
2023-01-04T06:49:40.625Z,1.29
2023-01-04T06:51:02.632Z,1.39
2023-01-04T06:52:24.426Z,1.49
2023-01-04T06:53:46.525Z,1.59
2023-01-04T06:55:11.826Z,1.70
2023-01-04T06:56:33.723Z,1.82
2023-01-04T06:57:59.522Z,1.91
2023-01-04T06:59:21.936Z,2.01
2023-01-04T07:00:43.805Z,2.11
2023-01-04T07:02:06.160Z,2.21
2023-01-04T07:03:28.321Z,2.26
2023-01-04T07:04:50.065Z,2.41
2023-01-04T07:06:12.114Z,2.52
2023-01-04T07:07:35.469Z,2.55
2023-01-04T07:08:57.191Z,2.55
2023-01-04T07:10:19.132Z,2.73
2023-01-04T07:11:40.667Z,2.87
2023-01-04T07:13:02.988Z,2.98
2023-01-04T07:14:24.978Z,3.12
2023-01-04T07:15:47.049Z,3.21
2023-01-04T07:17:08.964Z,3.32
2023-01-04T07:18:31.031Z,3.44
2023-01-04T07:19:53.248Z,3.53
2023-01-04T07:21:14.964Z,3.60
2023-01-04T07:22:36.591Z,3.72
2023-01-04T07:23:58.472Z,3.84
2023-01-04T07:25:20.686Z,3.88
2023-01-04T07:26:42.391Z,3.97
2023-01-04T07:28:04.520Z,4.04
2023-01-04T07:29:26.369Z,4.15
2023-01-04T07:30:48.220Z,4.25
2023-01-04T07:32:13.993Z,4.05
2023-01-04T07:33:36.129Z,4.09
2023-01-04T07:34:58.428Z,4.26
2023-01-04T07:36:20.314Z,4.31
2023-01-04T07:37:43.978Z,4.55
2023-01-04T07:39:05.815Z,4.61
2023-01-04T07:40:28.312Z,4.57
2023-01-04T07:41:50.867Z,4.74
2023-01-04T07:43:15.494Z,4.82
2023-01-04T07:44:37.567Z,4.80
2023-01-04T07:45:59.301Z,5.19
2023-01-04T07:47:20.947Z,5.46
2023-01-04T07:48:42.644Z,5.69
2023-01-04T07:50:06.150Z,5.88
2023-01-04T07:51:29.580Z,6.11
2023-01-04T07:52:51.574Z,6.33
2023-01-04T07:54:14.288Z,6.48
2023-01-04T07:55:36.064Z,6.69
2023-01-04T07:56:58.058Z,7.00
2023-01-04T07:58:19.731Z,7.19
2023-01-04T07:59:41.838Z,7.50
2023-01-04T08:01:08.768Z,7.71
2023-01-04T08:02:31.074Z,7.95
2023-01-04T08:03:53.895Z,8.21
2023-01-04T08:05:15.900Z,8.23
2023-01-04T08:06:38.498Z,8.67
2023-01-04T08:08:01.127Z,9.06
2023-01-04T08:09:23.124Z,9.27
2023-01-04T08:10:44.808Z,9.54
2023-01-04T08:12:06.767Z,9.98
2023-01-04T08:13:28.801Z,10.51
2023-01-04T08:14:50.816Z,10.71
2023-01-04T08:16:22.869Z,11.14
2023-01-04T08:17:44.563Z,11.29
2023-01-04T08:19:11.766Z,11.50
2023-01-04T08:20:33.569Z,11.65
2023-01-04T08:21:55.471Z,11.92
2023-01-04T08:23:17.113Z,12.39
2023-01-04T08:24:39.329Z,12.75
2023-01-04T08:26:09.926Z,13.10
2023-01-04T08:27:32.285Z,13.37
2023-01-04T08:28:54.860Z,13.72
2023-01-04T08:30:16.878Z,14.22
2023-01-04T08:31:39.378Z,14.44
2023-01-04T08:33:01.590Z,14.62
2023-01-04T08:34:23.499Z,15.16
2023-01-04T08:35:45.156Z,15.61
2023-01-04T08:37:07.131Z,15.78
2023-01-04T08:38:58.905Z,15.96
2023-01-04T08:40:10.998Z,16.37
2023-01-04T08:43:32.591Z,17.21
2023-01-04T08:44:59.990Z,17.09
2023-01-04T08:46:22.181Z,16.83
2023-01-04T08:47:44.116Z,16.84
2023-01-04T08:49:05.974Z,17.48
2023-01-04T08:50:27.950Z,17.29
2023-01-04T08:51:50.088Z,17.74
2023-01-04T08:53:12.944Z,18.26
2023-01-04T08:54:34.732Z,18.68
2023-01-04T08:55:58.727Z,18.93
2023-01-04T08:57:20.529Z,19.05
2023-01-04T08:58:42.456Z,19.14
2023-01-04T09:00:05.201Z,19.28
2023-01-04T09:01:27.388Z,19.18
2023-01-04T09:02:49.514Z,19.15
2023-01-04T09:04:11.537Z,19.45
2023-01-04T09:05:33.802Z,19.75
2023-01-04T09:06:55.605Z,19.63
2023-01-04T09:08:16.993Z,19.99
2023-01-04T09:09:38.836Z,19.91
2023-01-04T09:11:10.029Z,19.80
2023-01-04T09:12:31.716Z,19.95
2023-01-04T09:14:06.741Z,19.90
2023-01-04T09:15:29.408Z,20.03
2023-01-04T09:16:51.417Z,19.50
2023-01-04T09:18:31.637Z,18.87
2023-01-04T09:19:54.088Z,17.73
2023-01-04T09:21:18.948Z,16.87
2023-01-04T09:22:40.825Z,16.18
2023-01-04T09:24:03.068Z,15.41
2023-01-04T09:25:24.885Z,14.89
2023-01-04T09:26:47.594Z,14.48
2023-01-04T09:28:09.706Z,13.95
2023-01-04T09:29:31.461Z,13.42
2023-01-04T09:30:53.414Z,13.10
2023-01-04T09:32:16.974Z,12.67
2023-01-04T09:34:12.200Z,12.28
2023-01-04T09:35:21.026Z,11.63
2023-01-04T09:36:43.051Z,11.42
2023-01-04T09:38:04.980Z,11.25
2023-01-04T09:39:30.555Z,10.94
2023-01-04T09:41:06.827Z,10.64
2023-01-04T09:42:38.297Z,10.45
2023-01-04T09:44:10.266Z,10.22
2023-01-04T09:45:32.035Z,9.98
2023-01-04T09:47:05.543Z,9.78
2023-01-04T09:48:31.668Z,9.61
2023-01-04T09:50:03.018Z,9.46
2023-01-04T09:51:31.893Z,9.38
2023-01-04T09:53:18.682Z,9.24
2023-01-04T09:54:56.220Z,9.08
2023-01-04T09:56:39.766Z,8.85
2023-01-04T09:58:06.492Z,8.76
2023-01-04T09:59:34.201Z,8.66
2023-01-04T10:01:04.924Z,8.59
2023-01-04T10:02:49.093Z,8.44
2023-01-04T10:04:28.195Z,8.30
2023-01-04T10:05:51.310Z,8.15
2023-01-04T10:07:29.807Z,8.06
2023-01-04T10:08:51.781Z,7.98
2023-01-04T10:10:19.333Z,7.96
2023-01-04T10:12:05.843Z,7.91
2023-01-04T10:13:53.748Z,7.83
2023-01-04T10:15:27.394Z,7.72
2023-01-04T10:17:57.607Z,7.75
2023-01-04T10:21:39.109Z,7.65
2023-01-04T10:23:00.769Z,7.54
2023-01-04T10:24:31.471Z,7.49
2023-01-04T10:25:56.933Z,7.49
2023-01-04T10:27:57.168Z,7.38
2023-01-04T10:29:54.017Z,7.28
2023-01-04T10:31:39.308Z,7.22
2023-01-04T10:33:03.366Z,7.19
2023-01-04T10:34:42.037Z,7.15
2023-01-04T10:36:06.488Z,7.20
2023-01-04T10:37:36.433Z,7.19
2023-01-04T10:39:02.995Z,7.19
2023-01-04T10:40:28.181Z,7.13
2023-01-04T10:42:17.328Z,7.10
2023-01-04T10:44:11.233Z,7.10
2023-01-04T10:45:51.735Z,7.09
2023-01-04T10:47:21.786Z,7.06
2023-01-04T10:49:06.748Z,7.05
2023-01-04T10:50:31.256Z,6.92
2023-01-04T10:52:22.660Z,6.96
2023-01-04T10:53:52.981Z,6.88
2023-01-04T10:55:21.352Z,6.86
2023-01-04T10:56:56.397Z,6.90
2023-01-04T10:58:47.224Z,6.88
2023-01-04T11:00:21.827Z,6.84
2023-01-04T11:01:55.774Z,6.77
2023-01-04T11:03:40.239Z,6.86
2023-01-04T11:05:21.147Z,6.85
2023-01-04T11:06:53.786Z,6.76
2023-01-04T11:08:35.299Z,6.76
2023-01-04T11:10:06.775Z,6.75
2023-01-04T11:11:44.616Z,6.73
2023-01-04T11:13:06.438Z,6.71
2023-01-04T11:14:33.311Z,6.70
2023-01-04T11:16:02.881Z,6.68
2023-01-04T11:17:25.780Z,6.72
2023-01-04T11:18:49.428Z,6.70
2023-01-04T11:20:11.812Z,6.72
2023-01-04T11:21:43.322Z,6.68
2023-01-04T11:23:19.585Z,6.69
2023-01-04T11:24:54.521Z,6.67
2023-01-04T11:26:33.001Z,6.63
2023-01-04T11:28:26.724Z,6.63
2023-01-04T11:30:21.741Z,6.67
2023-01-04T11:31:49.667Z,6.64
2023-01-04T11:33:21.626Z,6.63
2023-01-04T11:34:56.982Z,6.64
2023-01-04T11:36:42.402Z,6.67
2023-01-04T11:38:25.122Z,6.66
2023-01-04T11:39:46.927Z,6.76
2023-01-04T11:41:16.854Z,6.73
2023-01-04T11:42:40.840Z,6.74
2023-01-04T11:44:05.542Z,6.76
2023-01-04T11:45:28.667Z,6.77
2023-01-04T11:47:08.294Z,6.78
2023-01-04T11:48:47.125Z,6.84
2023-01-04T11:50:48.188Z,6.79
2023-01-04T11:52:31.209Z,6.77
2023-01-04T11:54:02.055Z,6.76
2023-01-04T11:55:31.215Z,6.71
2023-01-04T11:57:11.800Z,6.72
2023-01-04T11:58:33.925Z,6.70
2023-01-04T12:00:10.917Z,6.66
2023-01-04T12:01:38.339Z,6.62
2023-01-04T12:03:18.060Z,6.63
2023-01-04T12:04:39.703Z,6.63
2023-01-04T12:06:01.456Z,6.61
2023-01-04T12:07:35.009Z,6.60
2023-01-04T12:08:56.946Z,6.59
2023-01-04T12:10:26.953Z,6.60
2023-01-04T12:11:56.141Z,6.57
2023-01-04T12:13:18.377Z,6.58
2023-01-04T12:14:47.883Z,6.57
2023-01-04T12:16:28.103Z,6.60
2023-01-04T12:18:04.586Z,6.54
2023-01-04T12:19:26.481Z,6.56
2023-01-04T12:20:48.156Z,6.56
2023-01-04T12:22:38.117Z,6.52
2023-01-04T12:23:59.940Z,6.48
2023-01-04T12:25:36.791Z,6.46
2023-01-04T12:26:59.246Z,6.46
2023-01-04T12:28:42.772Z,6.44
2023-01-04T12:30:08.212Z,6.47
2023-01-04T12:31:31.769Z,6.46
2023-01-04T12:32:53.737Z,6.45
2023-01-04T12:34:26.109Z,6.42
2023-01-04T12:36:04.911Z,6.43
2023-01-04T12:37:45.945Z,6.44
2023-01-04T12:39:16.393Z,6.41
2023-01-04T12:40:47.847Z,6.41
2023-01-04T12:42:11.638Z,6.40
2023-01-04T12:43:44.734Z,6.40
2023-01-04T12:45:15.366Z,6.37
2023-01-04T12:47:00.982Z,6.37
2023-01-04T12:48:47.148Z,6.36
2023-01-04T12:50:19.555Z,6.37
2023-01-04T12:51:52.038Z,6.34
2023-01-04T12:53:50.989Z,6.40
2023-01-04T12:55:31.661Z,6.40
2023-01-04T12:57:24.033Z,6.34
2023-01-04T12:59:25.274Z,6.35
2023-01-04T13:00:53.542Z,6.29
2023-01-04T13:02:18.960Z,6.29
2023-01-04T13:03:48.675Z,6.31
2023-01-04T13:07:25.620Z,6.26
2023-01-04T13:08:50.181Z,6.27
2023-01-04T13:10:30.788Z,6.32
2023-01-04T13:12:07.612Z,6.29
2023-01-04T13:13:32.294Z,6.27
2023-01-04T13:15:02.004Z,6.27
2023-01-04T13:16:34.422Z,6.28
2023-01-04T13:17:57.910Z,6.28
2023-01-04T13:19:26.594Z,6.27
2023-01-04T13:20:48.550Z,6.26
2023-01-04T13:22:17.569Z,6.22
2023-01-04T13:23:41.084Z,6.22
2023-01-04T13:25:04.817Z,6.22
2023-01-04T13:26:35.852Z,6.24
2023-01-04T13:28:00.286Z,6.21
2023-01-04T13:29:25.409Z,6.19
2023-01-04T13:30:47.638Z,6.14
2023-01-04T13:32:23.496Z,6.14
2023-01-04T13:33:47.469Z,6.10
2023-01-04T13:35:14.789Z,6.09
2023-01-04T13:36:36.781Z,6.08
2023-01-04T13:38:00.704Z,6.06
2023-01-04T13:39:24.022Z,6.03
2023-01-04T13:40:49.604Z,6.02
2023-01-04T13:42:28.548Z,6.04
2023-01-04T13:44:12.110Z,5.99
2023-01-04T13:46:14.346Z,6.00
2023-01-04T13:47:39.262Z,5.97
2023-01-04T13:49:03.305Z,5.99
2023-01-04T13:50:40.223Z,5.97
2023-01-04T13:52:47.270Z,5.95
2023-01-04T13:54:17.188Z,5.95
2023-01-04T13:55:39.616Z,5.91
2023-01-04T13:57:09.444Z,5.90
2023-01-04T13:58:32.434Z,5.88
2023-01-04T13:59:54.330Z,5.84
2023-01-04T14:01:24.977Z,5.87
2023-01-04T14:02:47.521Z,5.88
2023-01-04T14:04:21.743Z,5.88
2023-01-04T14:05:52.408Z,5.84
2023-01-04T14:07:22.933Z,5.83
2023-01-04T14:08:51.445Z,5.80
2023-01-04T14:10:18.763Z,5.78
2023-01-04T14:12:05.662Z,5.79
2023-01-04T14:13:29.154Z,5.77
2023-01-04T14:15:00.452Z,5.76
2023-01-04T14:16:22.312Z,5.79
2023-01-04T14:17:48.820Z,5.76
2023-01-04T14:19:48.228Z,5.74
2023-01-04T14:21:18.320Z,5.72
2023-01-04T14:22:40.003Z,5.73
2023-01-04T14:24:02.364Z,5.72
2023-01-04T14:25:48.575Z,5.71
2023-01-04T14:27:36.976Z,5.72
2023-01-04T14:28:59.101Z,5.69
2023-01-04T14:30:20.619Z,5.69
2023-01-04T14:31:44.808Z,5.68
2023-01-04T14:33:19.796Z,5.66
2023-01-04T14:34:41.731Z,5.65
2023-01-04T14:36:39.410Z,5.64
2023-01-04T14:38:11.119Z,5.62
2023-01-04T14:39:34.304Z,5.62
2023-01-04T14:40:56.452Z,5.60
2023-01-04T14:42:27.256Z,5.57
2023-01-04T14:43:54.914Z,5.59
2023-01-04T14:45:16.686Z,5.58
2023-01-04T14:46:39.424Z,5.57
2023-01-04T14:48:01.409Z,5.55
2023-01-04T14:49:26.795Z,5.55
2023-01-04T14:50:49.498Z,5.54
2023-01-04T14:52:21.328Z,5.53
2023-01-04T14:53:43.644Z,5.54
2023-01-04T14:55:05.994Z,5.51
2023-01-04T14:56:27.549Z,5.50
2023-01-04T14:57:49.551Z,5.50
2023-01-04T14:59:11.714Z,5.50
2023-01-04T15:00:33.264Z,5.47
2023-01-04T15:01:56.905Z,5.46
2023-01-04T15:03:18.802Z,5.44
2023-01-04T15:04:40.952Z,5.45
2023-01-04T15:06:02.619Z,5.43
2023-01-04T15:07:36.185Z,5.43
2023-01-04T15:08:57.616Z,5.41
2023-01-04T15:10:26.089Z,5.40
2023-01-04T15:11:47.810Z,5.40
2023-01-04T15:13:09.758Z,5.36
2023-01-04T15:14:31.876Z,5.36
2023-01-04T15:15:54.000Z,5.33
2023-01-04T15:17:15.948Z,5.33
2023-01-04T15:18:37.798Z,5.29
2023-01-04T15:19:59.654Z,5.28
2023-01-04T15:21:21.708Z,5.26
2023-01-04T15:22:44.193Z,5.24
2023-01-04T15:24:06.326Z,5.22
2023-01-04T15:25:29.752Z,5.22
2023-01-04T15:26:51.573Z,5.20
2023-01-04T15:28:14.987Z,5.19
2023-01-04T15:29:36.965Z,5.20
2023-01-04T15:30:59.707Z,5.18
2023-01-04T15:32:21.480Z,5.16
2023-01-04T15:33:43.289Z,5.15
2023-01-04T15:35:05.466Z,5.15
2023-01-04T15:36:27.356Z,5.13
2023-01-04T15:37:49.695Z,5.13
2023-01-04T15:39:14.216Z,5.12
2023-01-04T15:40:36.390Z,5.10
2023-01-04T15:42:30.088Z,5.10
2023-01-04T15:43:51.670Z,5.09
2023-01-04T15:45:13.589Z,5.09
2023-01-04T15:46:35.661Z,5.09
2023-01-04T15:48:03.031Z,5.06
2023-01-04T15:49:25.248Z,5.04
2023-01-04T15:50:46.958Z,5.03
2023-01-04T15:52:08.990Z,5.02
2023-01-04T15:53:31.063Z,5.01
2023-01-04T15:54:53.078Z,4.98
2023-01-04T15:56:15.128Z,4.98
2023-01-04T15:57:41.797Z,4.97
2023-01-04T15:59:05.627Z,4.96
2023-01-04T16:00:27.954Z,4.96
2023-01-04T16:01:49.929Z,4.96
2023-01-04T16:03:11.840Z,4.95
2023-01-04T16:04:35.121Z,4.95
2023-01-04T16:05:57.052Z,4.94
2023-01-04T16:07:18.914Z,4.92
2023-01-04T16:08:42.079Z,4.91
2023-01-04T16:10:04.718Z,4.89
2023-01-04T16:11:26.865Z,4.89
2023-01-04T16:12:54.715Z,4.89
2023-01-04T16:14:18.267Z,4.88
2023-01-04T16:15:39.717Z,4.86
2023-01-04T16:17:01.633Z,4.85
2023-01-04T16:18:26.346Z,4.84
2023-01-04T16:19:52.242Z,4.83
2023-01-04T16:21:15.284Z,4.82
2023-01-04T16:22:37.483Z,4.80
2023-01-04T16:24:09.338Z,4.80
2023-01-04T16:25:38.699Z,4.79
2023-01-04T16:27:00.255Z,4.79
2023-01-04T16:28:22.060Z,4.79
2023-01-04T16:29:43.969Z,4.79
2023-01-04T16:31:07.776Z,4.78
2023-01-04T16:32:29.770Z,4.79
2023-01-04T16:33:54.854Z,4.79
2023-01-04T16:35:16.937Z,4.78
2023-01-04T16:36:39.014Z,4.76
2023-01-04T16:38:00.759Z,4.75
2023-01-04T16:39:28.324Z,4.74
2023-01-04T16:41:05.471Z,4.73
2023-01-04T16:42:27.165Z,4.72
2023-01-04T16:43:51.966Z,4.74
2023-01-04T16:45:13.801Z,4.71
2023-01-04T16:46:37.525Z,4.72
2023-01-04T16:48:01.069Z,4.70
2023-01-04T16:49:22.709Z,4.70
2023-01-04T16:50:44.202Z,4.69
2023-01-04T16:52:10.457Z,4.67
2023-01-04T16:53:32.527Z,4.65
2023-01-04T16:54:54.475Z,4.62
2023-01-04T16:56:18.509Z,4.62
2023-01-04T16:57:40.503Z,4.59
2023-01-04T16:59:02.366Z,4.57
2023-01-04T17:00:24.306Z,4.55
2023-01-04T17:01:57.360Z,4.54
2023-01-04T17:03:19.555Z,4.54
2023-01-04T17:04:41.496Z,4.53
2023-01-04T17:06:12.463Z,4.52
2023-01-04T17:07:34.652Z,4.49
2023-01-04T17:08:57.990Z,4.48
2023-01-04T17:10:25.555Z,4.46
2023-01-04T17:13:42.426Z,4.41
2023-01-04T17:16:46.077Z,4.36
2023-01-04T17:18:09.568Z,4.34
2023-01-04T17:19:31.491Z,4.32
2023-01-04T17:21:24.161Z,4.30
2023-01-04T17:22:41.351Z,4.28
2023-01-04T17:24:03.665Z,4.27
2023-01-04T17:25:25.622Z,4.24
2023-01-04T17:26:48.250Z,4.22
2023-01-04T17:28:10.353Z,4.19
2023-01-04T17:29:32.303Z,4.18
2023-01-04T17:30:53.883Z,4.16
2023-01-04T17:32:15.932Z,4.15
2023-01-04T17:33:38.055Z,4.13
2023-01-04T17:34:59.957Z,4.10
2023-01-04T17:36:22.788Z,4.08
2023-01-04T17:37:44.685Z,4.08
2023-01-04T17:39:08.556Z,4.05
2023-01-04T17:40:30.419Z,4.03
2023-01-04T17:41:52.212Z,4.02
2023-01-04T17:43:14.079Z,4.00
2023-01-04T17:44:35.933Z,4.00
2023-01-04T17:46:02.592Z,3.98
2023-01-04T17:47:24.642Z,3.96
2023-01-04T17:48:46.905Z,3.94
2023-01-04T17:50:08.948Z,3.94
2023-01-04T17:51:31.133Z,3.92
2023-01-04T17:52:52.994Z,3.92
2023-01-04T17:54:14.713Z,3.91
2023-01-04T17:55:36.635Z,3.89
2023-01-04T17:56:58.477Z,3.88
2023-01-04T17:58:23.302Z,3.88
2023-01-04T17:59:45.285Z,3.86
2023-01-04T18:01:16.481Z,3.85
2023-01-04T18:02:38.498Z,3.85
2023-01-04T18:04:01.954Z,3.84
2023-01-04T18:05:23.880Z,3.82
2023-01-04T18:06:45.774Z,3.81
2023-01-04T18:08:08.719Z,3.80
2023-01-04T18:09:30.523Z,3.80
2023-01-04T18:11:08.410Z,3.80
2023-01-04T18:12:31.065Z,3.78
2023-01-04T18:13:53.456Z,3.78
2023-01-04T18:15:15.483Z,3.79
2023-01-04T18:16:56.971Z,3.79
2023-01-04T18:18:19.563Z,3.79
2023-01-04T18:19:44.558Z,3.78
2023-01-04T18:21:27.045Z,3.76
2023-01-04T18:22:50.143Z,3.75
2023-01-04T18:25:53.671Z,3.73
2023-01-04T18:27:25.040Z,3.72
2023-01-04T18:28:49.581Z,3.73
2023-01-04T18:30:12.028Z,3.71
2023-01-04T18:31:34.879Z,3.70
2023-01-04T18:32:56.851Z,3.70
2023-01-04T18:34:19.043Z,3.70
2023-01-04T18:35:40.697Z,3.69
2023-01-04T18:37:02.600Z,3.68
2023-01-04T18:38:24.563Z,3.66
2023-01-04T18:39:47.619Z,3.65
2023-01-04T18:41:09.999Z,3.64
2023-01-04T18:42:32.361Z,3.65
2023-01-04T18:44:13.672Z,3.63
2023-01-04T18:45:41.064Z,3.64
2023-01-04T18:47:03.537Z,3.66
2023-01-04T18:48:25.313Z,3.66
2023-01-04T18:49:47.580Z,3.66
2023-01-04T18:51:12.499Z,3.67
2023-01-04T18:52:35.683Z,3.66
2023-01-04T18:53:57.351Z,3.67
2023-01-04T18:55:19.150Z,3.68
2023-01-04T18:56:41.133Z,3.70
2023-01-04T18:58:02.987Z,3.71
2023-01-04T18:59:25.011Z,3.72
2023-01-04T19:00:46.695Z,3.72
2023-01-04T19:02:11.655Z,3.72
2023-01-04T19:03:38.213Z,3.73
2023-01-04T19:05:00.175Z,3.73
2023-01-04T19:06:23.326Z,3.73
2023-01-04T19:07:45.633Z,3.72
2023-01-04T19:09:07.734Z,3.73
2023-01-04T19:10:29.493Z,3.72
2023-01-04T19:11:51.610Z,3.72
2023-01-04T19:13:13.549Z,3.71
2023-01-04T19:14:35.402Z,3.71
2023-01-04T19:15:57.634Z,3.73
2023-01-04T19:17:21.693Z,3.76
2023-01-04T19:18:43.353Z,3.77
2023-01-04T19:20:06.091Z,3.77
2023-01-04T19:21:29.153Z,3.79
2023-01-04T19:22:50.756Z,3.78
2023-01-04T19:24:13.110Z,3.79
2023-01-04T19:25:36.242Z,3.78
2023-01-04T19:27:02.933Z,3.78
2023-01-04T19:28:25.708Z,3.78
2023-01-04T19:29:47.516Z,3.79
2023-01-04T19:31:10.467Z,3.75